Time;durP1;ratioP1;P1;durP2;ratioP2;P2;SDS_P1;SDS_P2;PMS_P1;PMS_P2;Temp;Humidity;BMP_temperature;BMP_pressure;BME280_temperature;BME280_humidity;BME280_pressure;Samples;Min_cycle;Max_cycle;Signal;HPM_P1;HPM_P2
2022/03/20 08:44:44;;;;;;;;;;;512.60;640.00;;;;;;6247504;23;19910;-86
2022/03/20 08:47:10;;;;;;;;;;;538.30;640.00;;;;;;6220524;23;19986;-86
2022/03/20 08:49:35;;;;;;;;;;;537.90;614.40;;;;;;6220542;23;19982;-84
2022/03/20 08:52:02;;;;;;;;;;;563.80;640.00;;;;;;6220102;23;19922;-85
2022/03/20 08:54:28;;;;;;;;;;;564.00;614.40;;;;;;6219870;23;19899;-86
2022/03/20 08:56:53;;;;;;;;;;;588.90;563.20;;;;;;6220281;23;19978;-85
2022/03/20 08:59:19;;;;;;;;;;;588.90;563.20;;;;;;6220227;23;19997;-84
2022/03/20 09:01:45;;;;;;;;;;;614.40;537.60;;;;;;6219623;23;19907;-83
2022/03/20 09:04:10;;;;;;;;;;;614.90;512.00;;;;;;6219816;23;19914;-83
2022/03/20 09:06:37;;;;;;;;;;;640.10;486.40;;;;;;6246452;23;19975;-86
2022/03/20 09:09:03;;;;;;;;;;;640.80;460.80;;;;;;6220232;23;20333;-86
2022/03/20 09:11:28;;;;;;;;;;;614.90;512.00;;;;;;6220443;23;19899;-90
2022/03/20 09:13:54;;;;;;;;;;;640.50;460.80;;;;;;6222338;23;19907;-90
2022/03/20 09:19:00;;;;;;;;;;;691.20;512.00;;;;;;6222812;23;19974;-89
2022/03/20 09:21:30;;;;;;;;;;;666.30;460.80;;;;;;6222878;23;19899;-88
2022/03/20 09:23:56;;;;;;;;;;;666.30;460.80;;;;;;6222723;23;19900;-88
2022/03/20 09:26:22;;;;;;;;;;;691.30;460.80;;;;;;6222699;23;19931;-89
2022/03/20 09:28:48;;;;;;;;;;;717.30;435.20;;;;;;6249145;23;19900;-89
2022/03/20 09:31:15;;;;;;;;;;;716.90;435.20;;;;;;6222702;23;19953;-88
2022/03/20 09:33:44;;;;;;;;;;;717.50;435.20;;;;;;6222839;23;20030;-93
2022/03/20 09:36:10;;;;;;;;;;;742.70;435.20;;;;;;6222521;23;19927;-92
2022/03/20 09:38:36;;;;;;;;;;;743.00;435.20;;;;;;6222109;23;19903;-93
2022/03/20 09:41:03;;;;;;;;;;;717.40;409.60;;;;;;6217687;23;20373;-93
2022/03/20 09:43:31;;;;;;;;;;;691.80;409.60;;;;;;6196768;23;20317;-91
2022/03/20 09:45:57;;;;;;;;;;;692.00;409.60;;;;;;6192454;23;19899;-90
2022/03/20 09:48:22;;;;;;;;;;;716.90;435.20;;;;;;6218066;23;19911;-89
2022/03/20 09:50:49;;;;;;;;;;;717.60;435.20;;;;;;6218514;23;20003;-90
2022/03/20 09:53:14;;;;;;;;;;;717.30;435.20;;;;;;6218055;23;20340;-89
2022/03/20 09:55:40;;;;;;;;;;;717.50;435.20;;;;;;6192057;23;19900;-90
2022/03/20 09:58:06;;;;;;;;;;;717.50;435.20;;;;;;6218162;23;19907;-89
2022/03/20 10:00:32;;;;;;;;;;;742.50;435.20;;;;;;6192092;23;19907;-88
2022/03/20 10:02:58;;;;;;;;;;;742.50;435.20;;;;;;6218550;23;19975;-90
2022/03/20 10:05:26;;;;;;;;;;;717.10;409.60;;;;;;6191875;23;19927;-90
2022/03/20 10:07:51;;;;;;;;;;;716.80;435.20;;;;;;6218546;23;19900;-90
2022/03/20 10:10:18;;;;;;;;;;;666.30;460.80;;;;;;6191696;23;19990;-90
2022/03/20 10:12:46;;;;;;;;;;;640.00;435.20;;;;;;6192162;23;20344;-89
2022/03/20 10:15:31;;;;;;;;;;;589.10;512.00;;;;;;6191809;23;19900;-85
2022/03/20 10:18:06;;;;;;;;;;;563.50;537.60;;;;;;6218127;23;19900;-85
2022/03/20 10:20:36;;;;;;;;;;;512.90;537.60;;;;;;6191887;23;19923;-86
2022/03/20 10:23:03;;;;;;;;;;;487.20;563.20;;;;;;6191857;23;19899;-89
2022/03/20 10:25:29;;;;;;;;;;;486.50;640.00;;;;;;6191357;23;19935;-88
2022/03/20 10:27:57;;;;;;;;;;;461.30;614.40;;;;;;6218327;23;19906;-88
2022/03/20 10:30:23;;;;;;;;;;;460.90;665.60;;;;;;6218312;23;19975;-88
2022/03/20 10:32:49;;;;;;;;;;;436.10;614.40;;;;;;6218348;23;19922;-88
2022/03/20 10:35:16;;;;;;;;;;;435.70;640.00;;;;;;6218074;23;19899;-89
2022/03/20 10:37:43;;;;;;;;;;;;;;;;;;6191810;23;19907;-89
2022/03/20 10:40:09;;;;;;;;;;;435.80;665.60;;;;;;6192027;23;19927;-88
2022/03/20 10:42:35;;;;;;;;;;;;;;;;;;6242653;23;20321;-88
2022/03/20 10:45:05;;;;;;;;;;;435.70;665.60;;;;;;6221312;23;19974;-91
2022/03/20 10:47:31;;;;;;;;;;;;;;;;;;6221456;23;19906;-90
2022/03/20 10:50:05;;;;;;;;;;;435.20;665.60;;;;;;6247401;23;19911;-87
2022/03/20 10:52:31;;;;;;;;;;;410.30;665.60;;;;;;6247027;23;19900;-87
2022/03/20 10:54:56;;;;;;;;;;;410.10;640.00;;;;;;6220676;23;19907;-87
2022/03/20 10:57:22;;;;;;;;;;;;;;;;;;6247461;23;19900;-87
2022/03/20 11:00:05;;;;;;;;;;;409.80;691.20;;;;;;6221196;23;20310;-86
2022/03/20 11:02:30;;;;;;;;;;;409.70;691.20;;;;;;6221392;23;19900;-87
2022/03/20 11:04:58;;;;;;;;;;;;;;;;;;6221146;23;19906;-85
2022/03/20 11:07:23;;;;;;;;;;;384.80;640.00;;;;;;6222982;23;20003;-84
2022/03/20 11:20:58;;;;;;;;;;;384.40;716.80;;;;;;6233728;23;19928;-86
2022/03/20 12:33:46;;;;;;;;;;;409.80;665.60;;;;;;6250530;22;19915;-88
2022/03/20 12:44:32;;;;;;;;;;;410.30;640.00;;;;;;6195573;23;19974;-87
2022/03/20 12:46:59;;;;;;;;;;;410.30;640.00;;;;;;6185620;23;19908;-87
2022/03/20 12:49:25;;;;;;;;;;;410.40;665.60;;;;;;6162046;23;19969;-87
2022/03/20 12:51:57;;;;;;;;;;;435.20;640.00;;;;;;6185820;23;20367;-89
2022/03/20 12:54:24;;;;;;;;;;;435.50;691.20;;;;;;6160756;23;19900;-90
2022/03/20 12:56:54;;;;;;;;;;;436.10;665.60;;;;;;6161084;23;19901;-88
2022/03/20 12:59:24;;;;;;;;;;;512.70;588.80;;;;;;6160828;23;20378;-89
2022/03/20 13:01:49;;;;;;;;;;;614.40;512.00;;;;;;6160713;23;19989;-89
2022/03/20 13:04:16;;;;;;;;;;;717.30;435.20;;;;;;6161087;23;19904;-89
2022/03/20 13:06:41;;;;;;;;;;;819.20;409.60;;;;;;6160995;23;19922;-87
2022/03/20 13:09:14;;;;;;;;;;;870.70;358.40;;;;;;6185370;23;20314;-87
2022/03/20 13:11:53;;;;;;;;;;;921.60;332.80;;;;;;6160891;23;19911;-86
2022/03/20 13:14:19;;;;;;;;;;;896.00;332.80;;;;;;6160835;23;19950;-86
2022/03/20 13:16:53;;;;;;;;;;;896.90;307.20;;;;;;6160383;23;19942;-84
2022/03/20 13:19:28;;;;;;;;;;;896.10;332.80;;;;;;6186683;23;19904;-87
2022/03/20 13:21:54;;;;;;;;;;;896.80;307.20;;;;;;6186389;23;19928;-84
2022/03/20 13:24:30;;;;;;;;;;;896.40;307.20;;;;;;6178658;23;19904;-81
2022/03/20 13:27:00;;;;;;;;;;;870.40;332.80;;;;;;6158117;23;19931;-81
2022/03/20 13:29:27;;;;;;;;;;;870.80;332.80;;;;;;6158611;23;19992;-81
2022/03/20 13:32:13;;;;;;;;;;;871.10;307.20;;;;;;6185429;23;20001;-82
2022/03/20 13:34:46;;;;;;;;;;;921.80;307.20;;;;;;6182934;23;19993;-82
2022/03/20 13:37:13;;;;;;;;;;;947.60;281.60;;;;;;6159049;23;19927;-82
2022/03/20 13:39:46;;;;;;;;;;;998.80;332.80;;;;;;6159429;23;19900;-81
2022/03/20 13:42:14;;;;;;;;;;;1024.20;332.80;;;;;;6159242;23;19993;-81
2022/03/20 13:44:40;;;;;;;;;;;1024.30;332.80;;;;;;6212433;23;19918;-81
2022/03/20 13:47:06;;;;;;;;;;;1024.40;332.80;;;;;;6220414;23;19900;-96
2022/03/20 13:49:32;;;;;;;;;;;1050.30;358.40;;;;;;6197594;23;19915;-93
2022/03/20 13:51:58;;;;;;;;;;;1075.20;358.40;;;;;;6201466;23;19899;-95
2022/03/20 13:54:23;;;;;;;;;;;1100.80;384.00;;;;;;6219485;23;20356;-90
2022/03/20 13:57:04;;;;;;;;;;;1101.30;384.00;;;;;;6220417;23;19900;-90
2022/03/20 13:59:31;;;;;;;;;;;1101.60;384.00;;;;;;6194588;23;20003;-89
2022/03/20 14:02:01;;;;;;;;;;;1100.80;384.00;;;;;;6193388;23;19900;-93
2022/03/20 14:04:35;;;;;;;;;;;1101.50;384.00;;;;;;6219706;23;19900;-89
2022/03/20 14:07:00;;;;;;;;;;;1075.60;358.40;;;;;;6192298;23;19911;-88
2022/03/20 14:09:37;;;;;;;;;;;1100.80;384.00;;;;;;6192137;23;19944;-88
2022/03/20 14:12:21;;;;;;;;;;;1101.70;384.00;;;;;;6217282;23;19931;-87
2022/03/20 14:14:47;;;;;;;;;;;1101.70;384.00;;;;;;6218753;23;20306;-87
2022/03/20 14:17:13;;;;;;;;;;;1101.60;384.00;;;;;;6217139;23;19900;-87
2022/03/20 14:19:46;;;;;;;;;;;1050.40;358.40;;;;;;6192342;23;20306;-83
2022/03/20 14:22:12;;;;;;;;;;;896.50;281.60;;;;;;6191718;23;20234;-85
2022/03/20 14:27:24;;;;;;;;;;;691.40;384.00;;;;;;6228267;23;19900;-86
2022/03/20 14:40:58;;;;;;;;;;;512.20;512.00;;;;;;6218246;23;19930;-82
2022/03/20 14:43:27;;;;;;;;;;;486.80;512.00;;;;;;6190940;23;19934;-85
2022/03/20 14:45:55;;;;;;;;;;;461.70;563.20;;;;;;6216810;23;19908;-86
2022/03/20 14:48:22;;;;;;;;;;;;;;;;;;6191899;23;19907;-91
2022/03/20 14:50:49;;;;;;;;;;;;;;;;;;6197559;23;19936;-94
2022/03/20 14:53:21;;;;;;;;;;;436.10;588.80;;;;;;6197136;23;19900;-94
2022/03/20 14:55:52;;;;;;;;;;;435.60;614.40;;;;;;6219871;23;19958;-89
2022/03/20 14:58:20;;;;;;;;;;;435.60;640.00;;;;;;6191433;23;19974;-93
2022/03/20 15:00:49;;;;;;;;;;;435.20;614.40;;;;;;6192461;23;19922;-90
2022/03/20 15:03:14;;;;;;;;;;;410.20;665.60;;;;;;6216634;23;19899;-89
2022/03/20 15:05:40;;;;;;;;;;;410.20;640.00;;;;;;6216522;23;19979;-89
2022/03/20 15:13:34;;;;;;;;;;;409.70;665.60;;;;;;6217908;23;19907;-89
2022/03/20 15:16:00;;;;;;;;;;;384.70;614.40;;;;;;6217725;23;19900;-89
2022/03/20 15:18:27;;;;;;;;;;;384.60;614.40;;;;;;6216557;23;20238;-90
2022/03/20 15:20:54;;;;;;;;;;;384.50;640.00;;;;;;6216493;23;19911;-93
2022/03/20 15:23:20;;;;;;;;;;;384.40;640.00;;;;;;6216796;23;20337;-91
2022/03/20 15:25:46;;;;;;;;;;;384.10;640.00;;;;;;6216832;23;19900;-91
2022/03/20 15:28:11;;;;;;;;;;;384.10;614.40;;;;;;6191294;23;19903;-89
2022/03/20 15:30:37;;;;;;;;;;;359.20;640.00;;;;;;6216401;23;19907;-88
2022/03/20 15:48:18;;;;;;;;;;;358.40;691.20;;;;;;6248922;22;20281;-85
2022/03/20 15:56:49;;;;;;;;;;;333.40;716.80;;;;;;6225624;22;19916;-88
2022/03/20 16:30:11;;;;;;;;;;;307.30;768.00;;;;;;6265363;22;19917;-77
2022/03/20 16:32:38;;;;;;;;;;;307.20;793.60;;;;;;6259732;23;19900;-76
2022/03/20 16:35:26;;;;;;;;;;;282.40;768.00;;;;;;6244690;22;19904;-78
2022/03/20 16:41:06;;;;;;;;;;;282.20;793.60;;;;;;6266091;22;19939;-77
2022/03/20 16:43:32;;;;;;;;;;;;;;;;;;6231212;23;19899;-77
2022/03/20 16:45:58;;;;;;;;;;;;;;;;;;6258327;23;19923;-78
2022/03/20 16:48:24;;;;;;;;;;;;;;;;;;6231303;23;19904;-77
2022/03/20 16:50:50;;;;;;;;;;;;;;;;;;6257128;23;19908;-77
2022/03/20 16:53:20;;;;;;;;;;;281.80;793.60;;;;;;6230949;23;19946;-77
2022/03/20 16:55:46;;;;;;;;;;;281.60;793.60;;;;;;6256901;23;19900;-77
2022/03/20 16:58:13;;;;;;;;;;;256.80;947.20;;;;;;6231028;23;20273;-77
2022/03/20 17:00:43;;;;;;;;;;;256.80;793.60;;;;;;6260538;23;19883;-78
2022/03/20 17:03:11;;;;;;;;;;;;;;;;;;6263013;23;19900;-78
2022/03/20 17:05:39;;;;;;;;;;;;;;;;;;6255904;23;19906;-77
2022/03/20 17:08:08;;;;;;;;;;;;;;;;;;6235426;23;19931;-78
2022/03/20 17:10:41;;;;;;;;;;;;;;;;;;6253900;23;19907;-78
2022/03/20 17:13:07;;;;;;;;;;;;;;;;;;6237036;23;19899;-78
2022/03/20 17:15:39;;;;;;;;;;;;;;;;;;6236591;23;19903;-78
2022/03/20 17:18:25;;;;;;;;;;;;;;;;;;6258215;23;19911;-78
2022/03/20 17:20:55;;;;;;;;;;;;;;;;;;6259821;23;19947;-77
2022/03/20 17:23:23;;;;;;;;;;;256.10;819.20;;;;;;6248764;23;19915;-77
2022/03/20 17:25:53;;;;;;;;;;;231.30;844.80;;;;;;6201508;23;19943;-77
2022/03/20 17:28:18;;;;;;;;;;;231.30;844.80;;;;;;6199856;23;19910;-76
2022/03/20 17:30:44;;;;;;;;;;;231.20;844.80;;;;;;6197344;23;19983;-76
2022/03/20 17:33:10;;;;;;;;;;;231.10;844.80;;;;;;6223543;23;20342;-76
2022/03/20 17:35:37;;;;;;;;;;;231.00;819.20;;;;;;6225557;23;20310;-76
2022/03/20 17:38:07;;;;;;;;;;;231.00;844.80;;;;;;6223473;23;20233;-76
2022/03/20 17:40:33;;;;;;;;;;;;;;;;;;6225519;23;19900;-77
2022/03/20 17:42:59;;;;;;;;;;;231.00;870.40;;;;;;6225303;23;19907;-76
2022/03/20 17:45:27;;;;;;;;;;;230.90;870.40;;;;;;6224570;23;19931;-75
2022/03/20 17:47:53;;;;;;;;;;;230.80;870.40;;;;;;6223670;23;19899;-76
2022/03/20 17:50:19;;;;;;;;;;;230.80;896.00;;;;;;6223286;23;19908;-75
2022/03/20 17:52:44;;;;;;;;;;;230.60;896.00;;;;;;6225441;23;19927;-75
2022/03/20 17:55:10;;;;;;;;;;;230.60;870.40;;;;;;6223626;23;19907;-75
2022/03/20 17:57:37;;;;;;;;;;;230.50;870.40;;;;;;6200916;23;19923;-75
2022/03/20 18:00:05;;;;;;;;;;;230.40;896.00;;;;;;6222499;23;19938;-76
2022/03/20 18:08:00;;;;;;;;;;;;;;;;;;6222099;23;19911;-75
2022/03/20 18:10:28;;;;;;;;;;;;;;;;;;6226570;23;19912;-76
2022/03/20 18:12:54;;;;;;;;;;;;;;;;;;6225622;23;19911;-75
2022/03/20 18:15:20;;;;;;;;;;;;;;;;;;6229578;23;19907;-75
2022/03/20 18:17:46;;;;;;;;;;;;;;;;;;6233917;23;19884;-75
2022/03/20 18:20:13;;;;;;;;;;;;;;;;;;6229477;23;19907;-75
2022/03/20 18:22:39;;;;;;;;;;;;;;;;;;6224308;23;19939;-76
2022/03/20 18:25:06;;;;;;;;;;;;;;;;;;6257210;23;19946;-76
2022/03/20 18:27:32;;;;;;;;;;;;;;;;;;6230533;23;19906;-76
2022/03/20 18:29:58;;;;;;;;;;;;;;;;;;6256952;23;19915;-75
2022/03/20 18:32:24;;;;;;;;;;;;;;;;;;6263309;23;19934;-75
2022/03/20 18:34:50;;;;;;;;;;;;;;;;;;6269154;22;19904;-76
2022/03/20 18:37:16;;;;;;;;;;;;;;;;;;6231204;23;19899;-77
2022/03/20 18:39:42;;;;;;;;;;;;;;;;;;6255470;23;19899;-75
2022/03/20 18:42:08;;;;;;;;;;;;;;;;;;6250244;23;19899;-75
2022/03/20 18:44:34;;;;;;;;;;;;;;;;;;6251539;23;19903;-75
2022/03/20 18:47:00;;;;;;;;;;;;;;;;;;6223985;23;19899;-76
2022/03/20 18:49:37;;;;;;;;;;;179.90;972.80;;;;;;6249245;23;19916;-75
2022/03/20 18:52:04;;;;;;;;;;;180.00;972.80;;;;;;6251662;23;19926;-75
2022/03/20 18:54:30;;;;;;;;;;;179.90;972.80;;;;;;6253402;23;19923;-76
2022/03/20 18:56:56;;;;;;;;;;;179.90;998.40;;;;;;6227838;23;19982;-76
2022/03/20 18:59:27;;;;;;;;;;;179.90;998.40;;;;;;6225762;23;19899;-76
2022/03/20 19:02:06;;;;;;;;;;;179.80;998.40;;;;;;6256293;23;19909;-76
2022/03/20 19:04:32;;;;;;;;;;;179.70;1024.00;;;;;;6257613;23;19899;-76
2022/03/20 19:06:58;;;;;;;;;;;179.60;998.40;;;;;;6255340;23;20026;-76
2022/03/20 19:09:26;;;;;;;;;;;179.50;1024.00;;;;;;6256106;23;19911;-76
2022/03/20 19:11:54;;;;;;;;;;;179.40;1024.00;;;;;;6256836;23;19989;-76
2022/03/20 19:14:22;;;;;;;;;;;179.30;1024.00;;;;;;6230745;23;20302;-75
2022/03/20 19:16:49;;;;;;;;;;;154.50;1024.00;;;;;;6255733;23;19907;-75
2022/03/20 19:19:16;;;;;;;;;;;154.50;1024.00;;;;;;6255767;23;19906;-76
2022/03/20 19:21:42;;;;;;;;;;;154.40;1024.00;;;;;;6230073;23;19900;-76
2022/03/20 19:24:08;;;;;;;;;;;154.40;1049.60;;;;;;6253069;23;19912;-75
2022/03/20 19:26:35;;;;;;;;;;;154.20;1049.60;;;;;;6252368;23;19906;-75
2022/03/20 19:29:00;;;;;;;;;;;154.00;1049.60;;;;;;6224689;23;19900;-76
2022/03/20 19:31:27;;;;;;;;;;;154.00;1049.60;;;;;;6223685;23;19955;-75
2022/03/20 19:42:10;;;;;;;;;;;153.80;1075.20;;;;;;6253291;23;19926;-76
2022/03/20 19:44:35;;;;;;;;;;;153.80;1100.80;;;;;;6225411;23;19906;-76
2022/03/20 19:47:01;;;;;;;;;;;153.60;1100.80;;;;;;6253059;23;19927;-78
2022/03/20 19:49:29;;;;;;;;;;;153.90;1100.80;;;;;;6228062;23;19986;-76
2022/03/20 19:51:56;;;;;;;;;;;153.80;1100.80;;;;;;6232689;23;19900;-76
2022/03/20 19:54:25;;;;;;;;;;;153.80;1075.20;;;;;;6255386;23;19907;-76
2022/03/20 19:56:53;;;;;;;;;;;153.70;1100.80;;;;;;6226646;23;20217;-76
2022/03/20 19:59:18;;;;;;;;;;;153.70;1126.40;;;;;;6225232;23;19899;-76
2022/03/20 20:01:44;;;;;;;;;;;153.70;1100.80;;;;;;6226343;23;20400;-75
2022/03/20 20:04:10;;;;;;;;;;;153.60;1126.40;;;;;;6252558;23;19899;-76
2022/03/20 20:06:36;;;;;;;;;;;153.60;1100.80;;;;;;6250762;23;19927;-76
2022/03/20 20:09:02;;;;;;;;;;;153.70;1100.80;;;;;;6224880;23;20285;-76
2022/03/20 20:11:28;;;;;;;;;;;153.70;1100.80;;;;;;6252340;23;19946;-76
2022/03/20 20:16:37;;;;;;;;;;;153.60;1100.80;;;;;;6251355;23;19946;-76
2022/03/20 20:19:03;;;;;;;;;;;128.70;1126.40;;;;;;6251873;23;20337;-77
2022/03/20 20:21:29;;;;;;;;;;;128.50;1126.40;;;;;;6227038;23;19899;-76
2022/03/20 20:23:55;;;;;;;;;;;128.50;1152.00;;;;;;6224853;23;20240;-76
2022/03/20 20:26:20;;;;;;;;;;;128.50;1152.00;;;;;;6223944;23;19906;-77
2022/03/20 20:28:46;;;;;;;;;;;128.40;1152.00;;;;;;6250925;23;19906;-76
2022/03/20 20:31:12;;;;;;;;;;;128.40;1152.00;;;;;;6251596;23;19907;-76
2022/03/20 20:33:38;;;;;;;;;;;128.20;1177.60;;;;;;6250817;23;19908;-76
2022/03/20 20:36:04;;;;;;;;;;;128.20;1177.60;;;;;;6250312;23;19986;-76
2022/03/20 20:38:30;;;;;;;;;;;128.10;1177.60;;;;;;6250089;23;19904;-76
2022/03/20 20:40:55;;;;;;;;;;;128.10;2099.20;;;;;;6250165;23;19978;-76
2022/03/20 20:43:21;;;;;;;;;;;;;;;;;;6252262;23;19899;-75
2022/03/20 20:45:50;;;;;;;;;;;;;;;;;;6251436;23;19899;-76
2022/03/20 20:48:16;;;;;;;;;;;;;;;;;;6225777;23;19906;-76
2022/03/20 20:50:44;;;;;;;;;;;128.00;1203.20;;;;;;6250570;23;19908;-76
2022/03/20 20:53:10;;;;;;;;;;;103.20;1177.60;;;;;;6252265;23;19982;-78
2022/03/20 20:55:36;;;;;;;;;;;103.20;1203.20;;;;;;6250632;23;19900;-77
2022/03/20 20:58:02;;;;;;;;;;;103.10;1203.20;;;;;;6225487;23;19923;-75
2022/03/20 21:00:28;;;;;;;;;;;;;;;;;;6221435;23;20314;-75
2022/03/20 21:02:54;;;;;;;;;;;;;;;;;;6221895;23;20340;-76
2022/03/20 21:05:23;;;;;;;;;;;;;;;;;;6230480;23;19900;-76
2022/03/20 21:13:19;;;;;;;;;;;;;;;;;;6253317;23;19907;-75
2022/03/20 21:15:45;;;;;;;;;;;;;;;;;;6228583;23;20288;-76
2022/03/20 21:18:15;;;;;;;;;;;;;;;;;;6259874;23;19899;-76
2022/03/20 21:20:41;;;;;;;;;;;;;;;;;;6230545;23;20313;-75
2022/03/20 21:23:08;;;;;;;;;;;;;;;;;;6255469;23;19915;-76
2022/03/20 21:25:34;;;;;;;;;;;;;;;;;;6225887;23;19904;-76
2022/03/20 21:28:00;;;;;;;;;;;;;;;;;;6226103;23;19935;-76
2022/03/20 21:30:26;;;;;;;;;;;;;;;;;;6227071;23;19915;-76
2022/03/20 21:32:53;;;;;;;;;;;;;;;;;;6227239;23;19899;-76
2022/03/20 21:35:19;;;;;;;;;;;;;;;;;;6201880;23;19907;-76
2022/03/20 21:37:45;;;;;;;;;;;;;;;;;;6228919;23;19900;-77
2022/03/20 21:40:16;;;;;;;;;;;;;;;;;;6200311;23;19904;-76
2022/03/20 21:42:43;;;;;;;;;;;;;;;;;;6213082;23;19911;-77
2022/03/20 21:45:09;;;;;;;;;;;;;;;;;;6229115;23;19974;-76
2022/03/20 21:47:35;;;;;;;;;;;;;;;;;;6224343;23;19946;-75
2022/03/20 21:50:01;;;;;;;;;;;;;;;;;;6194665;23;19959;-76
2022/03/20 21:52:27;;;;;;;;;;;;;;;;;;6227816;23;19900;-75
2022/03/20 21:54:53;;;;;;;;;;;;;;;;;;6228210;23;19904;-76
2022/03/20 21:57:20;;;;;;;;;;;;;;;;;;6229464;23;19900;-75
2022/03/20 21:59:46;;;;;;;;;;;;;;;;;;6200807;23;19974;-76
2022/03/20 22:02:12;;;;;;;;;;;;;;;;;;6197717;23;20211;-75
2022/03/20 22:04:38;;;;;;;;;;;;;;;;;;6224252;23;19906;-76
2022/03/20 22:07:07;;;;;;;;;;;;;;;;;;6223528;23;19911;-76
2022/03/20 22:09:34;;;;;;;;;;;;;;;;;;6199395;23;19908;-76
2022/03/20 22:12:00;;;;;;;;;;;;;;;;;;6197884;23;19907;-75
2022/03/20 22:14:28;;;;;;;;;;;;;;;;;;6222401;23;20314;-76
2022/03/20 22:17:00;;;;;;;;;;;;;;;;;;6223173;23;19978;-75
2022/03/20 22:19:27;;;;;;;;;;;;;;;;;;6220895;23;19982;-76
2022/03/20 22:21:53;;;;;;;;;;;;;;;;;;6222408;23;19900;-75
2022/03/20 22:24:20;;;;;;;;;;;;;;;;;;6216573;23;19957;-76
2022/03/20 22:26:46;;;;;;;;;;;;;;;;;;6230113;23;19900;-75
2022/03/20 22:29:15;;;;;;;;;;;;;;;;;;6256326;23;19951;-76
2022/03/20 22:31:41;;;;;;;;;;;;;;;;;;6226859;23;20292;-76
2022/03/20 22:34:07;;;;;;;;;;;;;;;;;;6224328;23;19926;-75
2022/03/20 22:39:18;;;;;;;;;;;;;;;;;;6250615;23;19906;-75
2022/03/20 22:41:44;;;;;;;;;;;;;;;;;;6250922;23;19966;-75
2022/03/20 22:44:11;;;;;;;;;;;;;;;;;;6251612;23;19915;-75
2022/03/20 22:46:37;;;;;;;;;;;;;;;;;;6250267;23;19899;-76
2022/03/20 22:51:48;;;;;;;;;;;;;;;;;;6252407;23;19961;-75
2022/03/20 22:54:15;;;;;;;;;;;;;;;;;;6250225;23;20481;-75
2022/03/20 22:56:42;;;;;;;;;;;;;;;;;;6250802;23;19900;-75
2022/03/20 22:59:08;;;;;;;;;;;;;;;;;;6250676;23;20332;-75
2022/03/20 23:01:34;;;;;;;;;;;;;;;;;;6251700;23;19906;-75
2022/03/20 23:04:01;;;;;;;;;;;;;;;;;;6251156;23;20321;-75
2022/03/20 23:06:27;;;;;;;;;;;;;;;;;;6223394;23;19900;-75
2022/03/20 23:08:53;;;;;;;;;;;;;;;;;;6250302;23;19914;-75
2022/03/20 23:11:21;;;;;;;;;;;;;;;;;;6250122;23;19907;-75
2022/03/20 23:13:47;;;;;;;;;;;;;;;;;;6250014;23;19906;-75
2022/03/20 23:16:13;;;;;;;;;;;;;;;;;;6250276;23;20284;-75
2022/03/20 23:18:39;;;;;;;;;;;;;;;;;;6223423;23;19899;-75
2022/03/20 23:21:06;;;;;;;;;;;;;;;;;;6249476;23;19906;-76
2022/03/20 23:23:32;;;;;;;;;;;;;;;;;;6249937;23;19914;-75
2022/03/20 23:25:58;;;;;;;;;;;;;;;;;;6249995;23;19935;-75
2022/03/20 23:28:24;;;;;;;;;;;;;;;;;;6225004;23;19945;-76
2022/03/20 23:30:50;;;;;;;;;;;;;;;;;;6250540;23;19950;-75
2022/03/20 23:33:17;;;;;;;;;;;;;;;;;;6250419;23;19907;-75
2022/03/20 23:35:43;;;;;;;;;;;;;;;;;;6222619;23;19922;-75
2022/03/20 23:38:09;;;;;;;;;;;;;;;;;;6249881;23;20305;-75
2022/03/20 23:40:35;;;;;;;;;;;;;;;;;;6250701;23;19966;-75
2022/03/20 23:43:19;;;;;;;;;;;;;;;;;;6223906;23;19906;-75
2022/03/20 23:45:45;;;;;;;;;;;;;;;;;;6250789;23;19903;-75
2022/03/20 23:48:11;;;;;;;;;;;;;;;;;;6223699;23;19982;-75
2022/03/20 23:50:37;;;;;;;;;;;;;;;;;;6250940;23;20382;-75
2022/03/20 23:53:03;;;;;;;;;;;;;;;;;;6249829;23;19919;-75
2022/03/20 23:55:30;;;;;;;;;;;;;;;;;;6249606;23;19904;-75
2022/03/20 23:58:10;;;;;;;;;;;;;;;;;;6222305;23;19903;-75
